Aeroporto :
LOGIN :

Iscrizione | Disclaimer

   EN    FR    IT 

 










Sommario :    VFR   VFR Marginale   IFR   IFR Intensivo   IFR Molto Intensivo
Visibilità : 
Base nubi : 
>= 8 km
>= 3000ft
5 / 8 km
1000 / 3000 ft
1500m / 5 km
500 / 1000 ft
800 / 1500m
200 / 500 ft
< 800m
< 200 ft
Simboli :   Temporali  Nebbia  Neve Forte  Precipitazioni Forti  Vento > 20 kt
SIGMETs :   Varie  Temporali  Ghiacco  Turbolenza  Onda orograficha  Ceneri Vulcaniche






- Altitudine del aeroporto : 202 ft
- Codice IATA : LGW


EGKK - London Gatwick

ULTIMO METAR :
  • 301250Z 22010KT 9000 -RA BKN008 15/14 Q1017

METARs OBSOLETI :
  • 301220Z 22010KT 6000 -RA BKN008 15/14 Q1017
  • 301150Z 22012KT 5000 -RADZ BKN007 15/14 Q1017
  • 301120Z 23012G22KT 190V250 6000 BKN007 15/14 Q1017
  • 301050Z 22010KT 5000 -DZ BKN007 15/14 Q1017 REDZ
  • 301020Z 22011KT 5000 DZ BKN007 14/13 Q1017 REDZ

TAF TAF EGKK
Valido dal 30 a 12 ore il 31 a 18 ore UTC


301102Z 3012/3118 22013KT 9999 BKN010
TEMPO 3012/3022 3000 RADZ BKN007
PROB30
TEMPO 3016/3022 BKN004
BECMG 3102/3105 BKN030
BECMG 3105/3108 18015G25KT
BECMG 3108/3111 19020G35KT
TEMPO 3111/3115 6000 RA
PROB30
TEMPO 3112/3115 3000 +RA BKN014
BECMG 3114/3117 23010KT



MetMap, La meteo Aeronautica in un colpo d'occhio ! - Copyright ORBIFLY Dicembre 2007 - Disclaimer

ORBIFLY MET'MAP TEAM :

Programmazione e sviluppo : Alexandra Zaïnal
Concezione : Baudouin d'Aumeries
Aiuto per la programmazione : Marc-Olivier Méhu
Supporto tecnico e logistico : Manuel Goepfert
Aiuto per la traduzione : Arnaldo La Scala

Contatto : metmap@orbifly.com




FONTI E CREDITI :

   NOAA